Accueil
METAR-TAF:

METAR-TAF

Aéroports :

Circuit de Zeltweg

Zeltweg, Autriche

latitude: 47-12N, longitude: 014-45E, altitude: 677 m

Observation

Le bulletin a été fait il y a 39 minutes, à 08:50 UTC
Vent 9 kt de est
Température 11°C
Humidité 62%
Pression 1019 hPa

METAR: LOXZ 300850Z 08009KT 30KM FEW040SC BKN060SC 11/04 Q1019

Heure: 11:29 (09:29 UTC)

Prévision

Le bulletin a été fait il y a 1 heure et 14 minutes, à 08:15 UTC
Prévision valable du 30 à 09 UTC au 30 à 18 UTC
Vent 3 kt de direction variable
Visibilité 10 km ou plus
Quelques nuages à une hauteur de 5000 ft
Nuages fragmentés à une hauteur de 9000 ft

TAF: LOXZ 300815Z 3009/3018 VRB03KT 9999 FEW050 BKN090

Observations et prévisions météorologiques de plus de 4000 aéroports (messages METAR et TAF).

Les stations disponibles sont représentées par des disques jaunes et rouges sur la carte.

Passer la souris dessus pour voir le nom de la station.

Cliquer dessus pour voir les observations et prévisions météorologiques.

Pour changer de carte: cliquez sur les boutons verts avec une croix noire pour zoomer, sur le bouton vert avec un tiret pour effectuer un zoom arrière, ou sur les flèches vertes pour les cartes adjacentes.


METAR-TAF: